Time;durP1;ratioP1;P1;durP2;ratioP2;P2;SDS_P1;SDS_P2;PMS_P1;PMS_P2;Temp;Humidity;BMP_temperature;BMP_pressure;BME280_temperature;BME280_humidity;BME280_pressure;Samples;Min_cycle;Max_cycle;Signal;HPM_P1;HPM_P2
2024/01/05 00:01:01;;;;;;;22.13;6.90;;;;;;;;;;5115307;28;20252;-32
2024/01/05 00:03:26;;;;;;;21.65;7.25;;;;;;;;;;5116004;28;20252;-33
2024/01/05 00:05:52;;;;;;;18.87;7.50;;;;;;;;;;5115671;28;20100;-33
2024/01/05 00:08:17;;;;;;;23.27;6.80;;;;;;;;;;5115266;28;20759;-32
2024/01/05 00:10:42;;;;;;;21.70;6.63;;;;;;;;;;5115249;28;20338;-33
2024/01/05 00:13:07;;;;;;;19.33;7.00;;;;;;;;;;5115219;28;20250;-33
2024/01/05 00:15:32;;;;;;;22.33;7.35;;;;;;;;;;5115427;28;20246;-33
2024/01/05 00:17:57;;;;;;;22.57;6.73;;;;;;;;;;5115189;28;20100;-33
2024/01/05 00:20:23;;;;;;;17.23;6.30;;;;;;;;;;5115117;28;20253;-33
2024/01/05 00:22:48;;;;;;;17.75;6.80;;;;;;;;;;5115089;28;20034;-33
2024/01/05 00:25:15;;;;;;;16.20;6.57;;;;;;;;;;5114937;28;20031;-32
2024/01/05 00:27:40;;;;;;;22.65;7.05;;;;;;;;;;5115153;28;20628;-32
2024/01/05 00:30:06;;;;;;;19.50;6.97;;;;;;;;;;5114919;28;20012;-33
2024/01/05 00:32:31;;;;;;;18.00;6.07;;;;;;;;;;5114758;28;20019;-33
2024/01/05 00:34:56;;;;;;;18.67;6.20;;;;;;;;;;5115069;28;20023;-33
2024/01/05 00:37:22;;;;;;;15.60;5.60;;;;;;;;;;5115044;28;20012;-32
2024/01/05 00:39:47;;;;;;;18.53;6.50;;;;;;;;;;5114665;28;20022;-33
2024/01/05 00:42:12;;;;;;;15.97;5.63;;;;;;;;;;5114721;28;20267;-32
2024/01/05 00:44:39;;;;;;;12.40;5.37;;;;;;;;;;5114615;28;20258;-32
2024/01/05 00:47:04;;;;;;;15.32;5.55;;;;;;;;;;5114777;28;20305;-32
2024/01/05 00:49:29;;;;;;;17.50;6.07;;;;;;;;;;5096329;28;20420;-33
2024/01/05 00:51:54;;;;;;;13.10;5.27;;;;;;;;;;5115074;28;20253;-32
2024/01/05 00:54:19;;;;;;;15.27;5.93;;;;;;;;;;5114402;28;20257;-32
2024/01/05 00:56:44;;;;;;;13.52;5.05;;;;;;;;;;5114688;28;20257;-32
2024/01/05 00:59:11;;;;;;;19.17;5.87;;;;;;;;;;5114412;28;20458;-33
2024/01/05 01:01:36;;;;;;;19.90;5.72;;;;;;;;;;5114413;28;20771;-32
2024/01/05 01:04:01;;;;;;;17.57;5.17;;;;;;;;;;5114274;28;20015;-32
2024/01/05 01:06:26;;;;;;;14.98;5.15;;;;;;;;;;5114852;28;20273;-33
2024/01/05 01:08:51;;;;;;;17.37;5.03;;;;;;;;;;5114180;28;20024;-33
2024/01/05 01:11:17;;;;;;;16.42;5.43;;;;;;;;;;5114071;28;20263;-33
2024/01/05 01:13:43;;;;;;;13.38;5.32;;;;;;;;;;5114182;28;20023;-32
2024/01/05 01:16:08;;;;;;;19.48;4.88;;;;;;;;;;5114117;28;20016;-33
2024/01/05 01:18:33;;;;;;;20.58;4.80;;;;;;;;;;5114033;28;20034;-33
2024/01/05 01:20:58;;;;;;;14.97;4.80;;;;;;;;;;5114101;28;20023;-32
2024/01/05 01:23:24;;;;;;;17.83;4.70;;;;;;;;;;5095825;28;20308;-32
2024/01/05 01:25:49;;;;;;;17.50;4.95;;;;;;;;;;5114546;28;20019;-32
2024/01/05 01:28:14;;;;;;;15.17;5.10;;;;;;;;;;5113820;28;20019;-33
2024/01/05 01:30:40;;;;;;;21.20;4.87;;;;;;;;;;5114501;28;20383;-32
2024/01/05 01:33:05;;;;;;;14.02;4.68;;;;;;;;;;5114168;28;20262;-32
2024/01/05 01:35:30;;;;;;;18.55;4.50;;;;;;;;;;5113892;28;20373;-33
2024/01/05 01:37:56;;;;;;;19.87;4.93;;;;;;;;;;5114414;28;20020;-33
2024/01/05 01:40:21;;;;;;;14.30;4.67;;;;;;;;;;5113841;28;20246;-33
2024/01/05 01:42:47;;;;;;;19.47;4.40;;;;;;;;;;5113884;28;20275;-33
2024/01/05 01:45:12;;;;;;;22.65;4.90;;;;;;;;;;5114108;28;20731;-32
2024/01/05 01:47:38;;;;;;;14.73;4.65;;;;;;;;;;5113782;28;20076;-33
2024/01/05 01:50:04;;;;;;;19.58;4.50;;;;;;;;;;5113812;28;20482;-32
2024/01/05 01:52:29;;;;;;;16.27;4.65;;;;;;;;;;5113654;28;20024;-33
2024/01/05 01:54:55;;;;;;;25.27;4.65;;;;;;;;;;5116933;28;20019;-32
2024/01/05 01:57:20;;;;;;;20.15;4.60;;;;;;;;;;5118407;28;20020;-32
2024/01/05 01:59:45;;;;;;;16.77;4.63;;;;;;;;;;5118037;28;20020;-33
2024/01/05 02:02:12;;;;;;;12.45;4.22;;;;;;;;;;5117889;28;20040;-33
2024/01/05 02:04:37;;;;;;;17.33;4.47;;;;;;;;;;5117748;28;20428;-33
2024/01/05 02:07:03;;;;;;;18.90;4.85;;;;;;;;;;5117661;28;20096;-32
2024/01/05 02:09:29;;;;;;;19.52;4.55;;;;;;;;;;5118207;28;20023;-33
2024/01/05 02:11:54;;;;;;;17.08;4.57;;;;;;;;;;5117535;28;20015;-33
2024/01/05 02:14:19;;;;;;;16.73;4.25;;;;;;;;;;5117518;28;20029;-33
2024/01/05 02:16:44;;;;;;;16.33;4.30;;;;;;;;;;5117507;28;20026;-33
2024/01/05 02:19:09;;;;;;;17.33;4.53;;;;;;;;;;5117423;28;20257;-33
2024/01/05 02:21:38;;;;;;;21.35;4.03;;;;;;;;;;5117674;28;20257;-33
2024/01/05 02:24:04;;;;;;;17.00;4.22;;;;;;;;;;5117619;28;20020;-33
2024/01/05 02:26:29;;;;;;;15.60;4.65;;;;;;;;;;5117314;28;20024;-32
2024/01/05 02:28:54;;;;;;;19.65;4.68;;;;;;;;;;5117206;28;20153;-33
2024/01/05 02:31:20;;;;;;;15.75;3.85;;;;;;;;;;5117529;28;20020;-33
2024/01/05 02:33:45;;;;;;;16.87;4.27;;;;;;;;;;5117177;28;20015;-32
2024/01/05 02:36:10;;;;;;;15.47;4.63;;;;;;;;;;5117676;28;20324;-32
2024/01/05 02:38:35;;;;;;;18.73;4.03;;;;;;;;;;5117083;28;20266;-32
2024/01/05 02:41:01;;;;;;;14.40;3.63;;;;;;;;;;5117045;28;20022;-33
2024/01/05 02:43:26;;;;;;;12.65;3.60;;;;;;;;;;5116967;28;20062;-33
2024/01/05 02:45:51;;;;;;;12.87;3.67;;;;;;;;;;5116944;28;20413;-32
2024/01/05 02:48:16;;;;;;;15.40;3.88;;;;;;;;;;5117070;28;20281;-32
2024/01/05 02:50:42;;;;;;;17.85;4.05;;;;;;;;;;5098271;28;20078;-33
2024/01/05 02:53:07;;;;;;;16.50;3.63;;;;;;;;;;5117239;28;20261;-33
2024/01/05 02:55:32;;;;;;;15.93;4.07;;;;;;;;;;5116693;28;20260;-33
2024/01/05 02:57:57;;;;;;;17.00;3.60;;;;;;;;;;5116697;28;20023;-40
2024/01/05 03:00:22;;;;;;;11.73;3.33;;;;;;;;;;5117227;28;20272;-33
2024/01/05 03:02:48;;;;;;;12.35;3.50;;;;;;;;;;5116715;28;20803;-33
2024/01/05 03:05:13;;;;;;;14.63;3.75;;;;;;;;;;5116570;28;20016;-32
2024/01/05 03:07:40;;;;;;;15.23;3.58;;;;;;;;;;5116509;28;20458;-32
2024/01/05 03:10:06;;;;;;;15.00;3.58;;;;;;;;;;5098309;28;20459;-33
2024/01/05 03:12:31;;;;;;;16.33;4.22;;;;;;;;;;5098195;28;20487;-33
2024/01/05 03:14:57;;;;;;;12.13;3.30;;;;;;;;;;5116959;28;20049;-33
2024/01/05 03:17:22;;;;;;;12.83;3.17;;;;;;;;;;5116282;28;20287;-33
2024/01/05 03:19:47;;;;;;;11.73;3.67;;;;;;;;;;5116852;28;20257;-33
2024/01/05 03:22:12;;;;;;;10.83;3.67;;;;;;;;;;5116188;28;20778;-33
2024/01/05 03:24:38;;;;;;;17.20;3.53;;;;;;;;;;5097934;28;20266;-33
2024/01/05 03:27:04;;;;;;;17.25;3.10;;;;;;;;;;5116045;28;20451;-33
2024/01/05 03:29:29;;;;;;;21.08;3.63;;;;;;;;;;5116372;28;20450;-33
2024/01/05 03:31:54;;;;;;;10.48;2.50;;;;;;;;;;5116085;28;20072;-33
2024/01/05 03:34:20;;;;;;;11.48;2.63;;;;;;;;;;5116569;28;20020;-33
2024/01/05 03:36:45;;;;;;;10.00;2.85;;;;;;;;;;5116311;28;20019;-32
2024/01/05 03:39:10;;;;;;;16.97;2.80;;;;;;;;;;5114432;28;20094;-33
2024/01/05 03:41:35;;;;;;;11.45;2.45;;;;;;;;;;5115122;28;20266;-33
2024/01/05 03:44:01;;;;;;;10.03;2.20;;;;;;;;;;5115112;28;20011;-33
2024/01/05 03:46:26;;;;;;;15.20;2.70;;;;;;;;;;5115664;28;20357;-33
2024/01/05 03:48:52;;;;;;;8.05;2.35;;;;;;;;;;5115839;28;20372;-32
2024/01/05 03:51:17;;;;;;;15.93;2.60;;;;;;;;;;5116146;28;20020;-32
2024/01/05 03:53:42;;;;;;;13.10;2.23;;;;;;;;;;5115548;28;20377;-32
2024/01/05 03:56:08;;;;;;;12.77;2.40;;;;;;;;;;5116099;28;20249;-33
2024/01/05 03:58:33;;;;;;;12.52;2.40;;;;;;;;;;5115484;28;20305;-33
2024/01/05 04:01:00;;;;;;;9.63;2.30;;;;;;;;;;5115189;28;20032;-32
2024/01/05 04:03:25;;;;;;;13.27;2.25;;;;;;;;;;5116055;28;20012;-33
2024/01/05 04:05:50;;;;;;;12.00;2.60;;;;;;;;;;5115693;28;20072;-33
2024/01/05 04:08:15;;;;;;;9.70;2.57;;;;;;;;;;5115329;28;20601;-34
2024/01/05 04:10:40;;;;;;;13.17;2.40;;;;;;;;;;5115801;28;20308;-33
2024/01/05 04:13:06;;;;;;;13.52;1.85;;;;;;;;;;5115452;28;20250;-33
2024/01/05 04:15:34;;;;;;;10.85;2.30;;;;;;;;;;5115228;28;20022;-33
2024/01/05 04:18:00;;;;;;;11.70;2.00;;;;;;;;;;5114716;28;20031;-33
2024/01/05 04:20:25;;;;;;;16.17;2.95;;;;;;;;;;5115215;28;20020;-33
2024/01/05 04:22:50;;;;;;;7.32;1.80;;;;;;;;;;5115116;28;20038;-34
2024/01/05 04:25:15;;;;;;;6.70;1.88;;;;;;;;;;5114934;28;20275;-33
2024/01/05 04:27:40;;;;;;;12.23;2.60;;;;;;;;;;5115236;28;20110;-34
2024/01/05 04:30:06;;;;;;;8.43;2.22;;;;;;;;;;5115273;28;20257;-33
2024/01/05 04:32:31;;;;;;;8.20;2.17;;;;;;;;;;5114932;28;20026;-35
2024/01/05 04:34:56;;;;;;;5.17;2.27;;;;;;;;;;5114870;28;20476;-34
2024/01/05 04:37:22;;;;;;;10.43;2.23;;;;;;;;;;5115059;28;20310;-34
2024/01/05 04:39:47;;;;;;;12.05;2.35;;;;;;;;;;5115298;28;20250;-33
2024/01/05 04:42:12;;;;;;;8.13;2.10;;;;;;;;;;5115278;28;20142;-33
2024/01/05 04:44:37;;;;;;;10.32;2.00;;;;;;;;;;5114957;28;20024;-33
2024/01/05 04:47:02;;;;;;;8.53;1.77;;;;;;;;;;5114546;28;20094;-33
2024/01/05 04:49:28;;;;;;;5.75;1.85;;;;;;;;;;5114881;28;20252;-34
2024/01/05 04:51:53;;;;;;;8.95;1.83;;;;;;;;;;5114588;28;20019;-34
2024/01/05 04:54:18;;;;;;;10.93;2.05;;;;;;;;;;5114522;28;20462;-33
2024/01/05 04:56:43;;;;;;;13.30;2.30;;;;;;;;;;5114536;28;20015;-33
2024/01/05 04:59:08;;;;;;;8.80;2.67;;;;;;;;;;5114425;28;20378;-33
2024/01/05 05:01:34;;;;;;;7.90;2.22;;;;;;;;;;5114368;28;20285;-33
2024/01/05 05:03:59;;;;;;;9.57;2.30;;;;;;;;;;5114376;28;20420;-34
2024/01/05 05:06:24;;;;;;;12.20;2.33;;;;;;;;;;5114563;28;20293;-33
2024/01/05 05:08:49;;;;;;;9.67;2.70;;;;;;;;;;5114523;28;20072;-33
2024/01/05 05:11:14;;;;;;;7.43;2.20;;;;;;;;;;5114464;28;20273;-33
2024/01/05 05:13:39;;;;;;;8.45;2.20;;;;;;;;;;5114429;28;20306;-33
2024/01/05 05:16:05;;;;;;;9.85;2.10;;;;;;;;;;5114085;28;20113;-33
2024/01/05 05:18:30;;;;;;;9.75;2.10;;;;;;;;;;5114681;28;20080;-33
2024/01/05 05:20:55;;;;;;;6.83;1.90;;;;;;;;;;5114298;28;20024;-33
2024/01/05 05:23:20;;;;;;;9.17;1.97;;;;;;;;;;5114044;28;20753;-33
2024/01/05 05:25:46;;;;;;;7.95;1.95;;;;;;;;;;5114249;28;20257;-33
2024/01/05 05:28:11;;;;;;;7.93;2.47;;;;;;;;;;5113646;28;20023;-32
2024/01/05 05:30:36;;;;;;;9.13;1.97;;;;;;;;;;5113979;28;20581;-33
2024/01/05 05:33:01;;;;;;;12.73;2.00;;;;;;;;;;5114214;28;20336;-33
2024/01/05 05:35:26;;;;;;;7.03;1.70;;;;;;;;;;5114031;28;20269;-33
2024/01/05 05:37:51;;;;;;;10.48;1.98;;;;;;;;;;5114217;28;20031;-33
2024/01/05 05:40:17;;;;;;;7.53;2.00;;;;;;;;;;5114437;28;20019;-33
2024/01/05 05:42:42;;;;;;;6.88;1.92;;;;;;;;;;5113812;28;20250;-32
2024/01/05 05:45:08;;;;;;;9.13;1.80;;;;;;;;;;5095562;28;20023;-32
2024/01/05 05:47:33;;;;;;;5.85;1.70;;;;;;;;;;5114295;28;20470;-33
2024/01/05 05:49:58;;;;;;;8.95;1.80;;;;;;;;;;5114282;28;20012;-33
2024/01/05 05:52:23;;;;;;;9.63;2.00;;;;;;;;;;5113665;28;20026;-38
2024/01/05 05:54:48;;;;;;;7.67;1.80;;;;;;;;;;5114315;28;20299;-33
2024/01/05 05:57:14;;;;;;;7.67;1.67;;;;;;;;;;5113702;28;20246;-33
2024/01/05 05:59:39;;;;;;;8.20;1.77;;;;;;;;;;5113925;28;20266;-33
2024/01/05 06:02:04;;;;;;;8.40;1.73;;;;;;;;;;5113638;28;20708;-33
2024/01/05 06:04:29;;;;;;;10.73;2.20;;;;;;;;;;5114140;28;20264;-33
2024/01/05 06:06:54;;;;;;;11.65;2.08;;;;;;;;;;5113544;28;20655;-33
2024/01/05 06:09:20;;;;;;;4.77;1.73;;;;;;;;;;5114124;28;20015;-33
2024/01/05 06:11:45;;;;;;;9.23;2.37;;;;;;;;;;5113557;28;20261;-33
2024/01/05 06:14:10;;;;;;;8.23;2.07;;;;;;;;;;5113550;28;20623;-33
2024/01/05 06:16:35;;;;;;;5.83;1.63;;;;;;;;;;5112916;28;20261;-33
2024/01/05 06:19:01;;;;;;;10.70;2.20;;;;;;;;;;5111415;28;20815;-33
2024/01/05 06:21:26;;;;;;;7.25;1.98;;;;;;;;;;5111396;28;20273;-33
2024/01/05 06:23:51;;;;;;;5.90;2.07;;;;;;;;;;5112713;28;20098;-33
2024/01/05 06:26:16;;;;;;;6.95;1.90;;;;;;;;;;5113710;28;20793;-33
2024/01/05 06:28:42;;;;;;;7.80;2.27;;;;;;;;;;5108472;28;20027;-32
2024/01/05 06:31:07;;;;;;;8.35;2.20;;;;;;;;;;5093212;28;20345;-33
2024/01/05 06:33:33;;;;;;;10.43;2.35;;;;;;;;;;5093230;28;20467;-38
2024/01/05 06:35:58;;;;;;;10.32;2.20;;;;;;;;;;5093141;28;20012;-33
2024/01/05 06:38:23;;;;;;;8.20;2.30;;;;;;;;;;5093125;28;20012;-33
2024/01/05 06:40:48;;;;;;;9.63;2.20;;;;;;;;;;5095530;28;20281;-34
2024/01/05 06:43:13;;;;;;;4.57;1.77;;;;;;;;;;5078373;28;20294;-33
2024/01/05 06:45:38;;;;;;;8.98;2.10;;;;;;;;;;5096608;28;20270;-34
2024/01/05 06:48:04;;;;;;;6.25;1.80;;;;;;;;;;5096695;28;20024;-33
2024/01/05 06:50:29;;;;;;;9.05;2.03;;;;;;;;;;5096417;28;20022;-33
2024/01/05 06:52:54;;;;;;;7.78;1.83;;;;;;;;;;5096476;28;20378;-33
2024/01/05 06:55:20;;;;;;;12.87;2.37;;;;;;;;;;5096372;28;20023;-33
2024/01/05 06:57:46;;;;;;;5.53;1.77;;;;;;;;;;5097380;28;20266;-33
2024/01/05 07:00:12;;;;;;;6.82;1.60;;;;;;;;;;5096503;28;20258;-33
2024/01/05 07:02:37;;;;;;;6.70;1.95;;;;;;;;;;5096193;28;20123;-33
2024/01/05 07:05:05;;;;;;;4.80;1.58;;;;;;;;;;5096439;28;20020;-33
2024/01/05 07:07:30;;;;;;;8.65;1.98;;;;;;;;;;5096422;28;20099;-34
2024/01/05 07:09:56;;;;;;;6.75;1.80;;;;;;;;;;5096088;28;20024;-33
2024/01/05 07:12:21;;;;;;;4.50;1.50;;;;;;;;;;5096226;28;20023;-33
2024/01/05 07:14:47;;;;;;;7.75;1.83;;;;;;;;;;5096023;28;20020;-33
2024/01/05 07:17:12;;;;;;;7.00;1.88;;;;;;;;;;5095989;28;20060;-33
2024/01/05 07:19:38;;;;;;;3.25;1.48;;;;;;;;;;5095971;28;20020;-33
2024/01/05 07:22:03;;;;;;;6.57;1.60;;;;;;;;;;5095788;28;20028;-33
2024/01/05 07:24:28;;;;;;;6.13;1.50;;;;;;;;;;5095773;28;20020;-33
2024/01/05 07:26:53;;;;;;;5.47;1.70;;;;;;;;;;5096348;28;20326;-33
2024/01/05 07:29:18;;;;;;;4.73;1.40;;;;;;;;;;5077458;28;20277;-33
2024/01/05 07:31:45;;;;;;;3.47;1.30;;;;;;;;;;5096165;28;20281;-33
2024/01/05 07:34:10;;;;;;;2.55;1.05;;;;;;;;;;5095632;28;20334;-34
2024/01/05 07:36:40;;;;;;;3.60;1.27;;;;;;;;;;5095781;28;20048;-33
2024/01/05 07:39:05;;;;;;;2.03;0.90;;;;;;;;;;5077472;28;20349;-33
2024/01/05 07:41:30;;;;;;;1.27;0.60;;;;;;;;;;5095730;28;20407;-33
2024/01/05 07:43:55;;;;;;;2.78;0.70;;;;;;;;;;5096044;28;20303;-33
2024/01/05 07:46:22;;;;;;;2.45;0.80;;;;;;;;;;5095665;28;20024;-33
2024/01/05 07:48:47;;;;;;;3.33;0.80;;;;;;;;;;5095575;28;20348;-34
2024/01/05 07:51:12;;;;;;;1.75;0.60;;;;;;;;;;5094475;28;20019;-33
2024/01/05 07:53:38;;;;;;;1.02;0.50;;;;;;;;;;5095214;28;20020;-43
2024/01/05 07:56:04;;;;;;;1.20;0.60;;;;;;;;;;5095417;28;20012;-32
2024/01/05 07:58:29;;;;;;;2.58;0.70;;;;;;;;;;5095164;28;20458;-32
2024/01/05 08:00:54;;;;;;;3.03;0.52;;;;;;;;;;5095556;28;20024;-30
2024/01/05 08:03:21;;;;;;;1.70;0.60;;;;;;;;;;5094882;28;20506;-32
2024/01/05 08:05:46;;;;;;;1.48;0.40;;;;;;;;;;5095279;28;20050;-33
2024/01/05 08:08:11;;;;;;;2.58;0.47;;;;;;;;;;5095498;28;20016;-32
2024/01/05 08:10:36;;;;;;;1.73;0.47;;;;;;;;;;5095218;28;20549;-33
2024/01/05 08:13:02;;;;;;;3.13;0.90;;;;;;;;;;5094665;28;20020;-32
2024/01/05 08:15:27;;;;;;;1.70;0.68;;;;;;;;;;5094734;28;20262;-32
2024/01/05 08:17:52;;;;;;;0.80;0.50;;;;;;;;;;5076887;28;20082;-32
2024/01/05 08:20:18;;;;;;;4.57;0.85;;;;;;;;;;5094677;28;20107;-32
2024/01/05 08:22:43;;;;;;;1.23;0.70;;;;;;;;;;5094697;28;20081;-32
2024/01/05 08:25:08;;;;;;;3.40;0.87;;;;;;;;;;5095488;28;20273;-32
2024/01/05 08:27:33;;;;;;;4.78;1.20;;;;;;;;;;5094368;28;20314;-32
2024/01/05 08:29:58;;;;;;;2.85;0.82;;;;;;;;;;5094536;28;20359;-32
2024/01/05 08:32:24;;;;;;;4.87;0.90;;;;;;;;;;5094492;28;20349;-32
2024/01/05 08:34:49;;;;;;;1.65;0.77;;;;;;;;;;5094658;28;20262;-32
2024/01/05 08:37:15;;;;;;;4.03;0.93;;;;;;;;;;5094647;28;20012;-31
2024/01/05 08:39:40;;;;;;;1.48;0.70;;;;;;;;;;5094280;28;20261;-31
2024/01/05 08:42:06;;;;;;;1.35;0.60;;;;;;;;;;5094558;28;20019;-32
2024/01/05 08:44:32;;;;;;;3.35;1.00;;;;;;;;;;5094890;28;20016;-32
2024/01/05 08:46:57;;;;;;;1.27;0.93;;;;;;;;;;5094146;28;20024;-32
2024/01/05 08:49:23;;;;;;;2.35;1.00;;;;;;;;;;5093977;28;20486;-35
2024/01/05 08:51:48;;;;;;;1.43;0.90;;;;;;;;;;5094097;28;20534;-31
2024/01/05 08:54:13;;;;;;;3.87;1.37;;;;;;;;;;5094623;28;20254;-32
2024/01/05 08:56:38;;;;;;;2.15;1.17;;;;;;;;;;5094206;28;20266;-32
2024/01/05 08:59:06;;;;;;;2.38;1.35;;;;;;;;;;5094217;28;20016;-32
2024/01/05 09:01:32;;;;;;;1.92;1.20;;;;;;;;;;5093802;28;20047;-32
2024/01/05 09:03:58;;;;;;;2.42;1.20;;;;;;;;;;5092894;28;20094;-32
2024/01/05 09:06:23;;;;;;;3.65;1.30;;;;;;;;;;5076062;28;20031;-32
2024/01/05 09:08:49;;;;;;;1.33;1.10;;;;;;;;;;5093858;28;20039;-32
2024/01/05 09:11:14;;;;;;;3.08;1.60;;;;;;;;;;5094127;28;20016;-31
2024/01/05 09:13:39;;;;;;;1.40;1.30;;;;;;;;;;5075744;28;20020;-32
2024/01/05 09:16:04;;;;;;;2.07;1.30;;;;;;;;;;5093801;28;20087;-32
2024/01/05 09:18:33;;;;;;;1.93;1.17;;;;;;;;;;5093716;28;20271;-32
2024/01/05 09:20:59;;;;;;;2.58;1.48;;;;;;;;;;5094002;28;20846;-32
2024/01/05 09:23:24;;;;;;;4.93;1.45;;;;;;;;;;5093795;28;20038;-32
2024/01/05 09:25:49;;;;;;;3.53;1.80;;;;;;;;;;5093977;28;20051;-34
2024/01/05 09:28:16;;;;;;;3.83;1.40;;;;;;;;;;5093623;28;20270;-33
2024/01/05 09:30:42;;;;;;;3.33;1.50;;;;;;;;;;5093887;28;20257;-33
2024/01/05 09:33:08;;;;;;;2.33;1.38;;;;;;;;;;5093922;28;20501;-33
2024/01/05 09:35:33;;;;;;;5.10;1.95;;;;;;;;;;5075501;28;20018;-34
2024/01/05 09:37:58;;;;;;;1.83;1.40;;;;;;;;;;5093923;28;20024;-37
2024/01/05 09:40:24;;;;;;;3.20;1.80;;;;;;;;;;5075535;28;20031;-33
2024/01/05 09:42:54;;;;;;;4.32;1.83;;;;;;;;;;5093701;28;20286;-33
2024/01/05 09:45:21;;;;;;;5.13;2.08;;;;;;;;;;5091763;28;20028;-33
2024/01/05 09:47:47;;;;;;;2.80;1.80;;;;;;;;;;5091071;28;20066;-33
2024/01/05 09:50:13;;;;;;;2.50;1.88;;;;;;;;;;5091137;28;20020;-34
2024/01/05 09:52:39;;;;;;;2.97;1.92;;;;;;;;;;5073123;28;20123;-33
2024/01/05 09:55:04;;;;;;;2.45;2.00;;;;;;;;;;5091497;28;20015;-33
2024/01/05 09:57:30;;;;;;;5.55;2.70;;;;;;;;;;5091563;28;20020;-33
2024/01/05 09:59:55;;;;;;;2.92;1.70;;;;;;;;;;5091848;28;20437;-32
2024/01/05 10:02:39;;;;;;;3.20;2.10;;;;;;;;;;5074962;28;20078;-33
2024/01/05 10:05:04;;;;;;;2.70;2.10;;;;;;;;;;5092139;28;20028;-33
2024/01/05 10:07:29;;;;;;;3.03;2.00;;;;;;;;;;5093493;28;20027;-33
2024/01/05 10:09:55;;;;;;;3.07;2.23;;;;;;;;;;5093932;28;20024;-33
2024/01/05 10:12:20;;;;;;;4.65;2.17;;;;;;;;;;5093435;28;20254;-32
2024/01/05 10:14:48;;;;;;;3.17;2.20;;;;;;;;;;5093267;28;20008;-33
2024/01/05 10:17:15;;;;;;;2.95;2.15;;;;;;;;;;5097084;28;20505;-33
2024/01/05 10:19:41;;;;;;;3.05;2.10;;;;;;;;;;5097161;28;20026;-33
2024/01/05 10:22:10;;;;;;;4.00;2.13;;;;;;;;;;5096941;28;20016;-33
2024/01/05 10:24:35;;;;;;;5.10;2.40;;;;;;;;;;5097109;28;20015;-32
2024/01/05 10:27:01;;;;;;;4.40;2.33;;;;;;;;;;5094846;28;20391;-33
2024/01/05 10:29:27;;;;;;;2.75;2.28;;;;;;;;;;5094964;28;20308;-33
2024/01/05 10:31:52;;;;;;;4.35;2.40;;;;;;;;;;5094913;28;20099;-33
2024/01/05 10:34:17;;;;;;;3.23;2.13;;;;;;;;;;5094645;28;20012;-32
2024/01/05 10:36:42;;;;;;;4.00;3.10;;;;;;;;;;5094704;28;20348;-33
2024/01/05 10:39:11;;;;;;;4.57;3.10;;;;;;;;;;5094639;28;20262;-33
2024/01/05 10:41:37;;;;;;;3.20;2.72;;;;;;;;;;5096328;28;20269;-33
2024/01/05 10:44:02;;;;;;;3.63;3.08;;;;;;;;;;5096987;28;20111;-34
2024/01/05 10:46:29;;;;;;;4.40;2.85;;;;;;;;;;5096631;28;20027;-32
2024/01/05 10:48:54;;;;;;;4.03;3.03;;;;;;;;;;5096490;28;20027;-33
2024/01/05 10:51:20;;;;;;;4.80;3.28;;;;;;;;;;5096007;28;20012;-33
2024/01/05 10:53:47;;;;;;;5.28;3.40;;;;;;;;;;5095665;28;20020;-32
2024/01/05 10:56:12;;;;;;;5.60;3.20;;;;;;;;;;5095290;28;20478;-33
2024/01/05 10:58:37;;;;;;;4.55;3.50;;;;;;;;;;5078163;28;20024;-32
2024/01/05 11:01:03;;;;;;;4.78;3.45;;;;;;;;;;5096956;28;20422;-33
2024/01/05 11:03:37;;;;;;;7.25;3.28;;;;;;;;;;5096189;28;20402;-32
2024/01/05 11:06:04;;;;;;;5.63;3.22;;;;;;;;;;5078169;28;20020;-33
2024/01/05 11:08:39;;;;;;;4.28;3.30;;;;;;;;;;5096235;28;20080;-33
2024/01/05 11:11:10;;;;;;;5.15;3.70;;;;;;;;;;5096398;28;20005;-33
2024/01/05 11:13:38;;;;;;;3.65;3.03;;;;;;;;;;5077937;28;20028;-33
2024/01/05 11:16:07;;;;;;;4.97;3.47;;;;;;;;;;5094631;28;20052;-32
2024/01/05 11:18:35;;;;;;;5.50;3.72;;;;;;;;;;5094060;28;20069;-33
2024/01/05 11:21:11;;;;;;;5.13;4.05;;;;;;;;;;5093992;28;20035;-33
2024/01/05 11:23:37;;;;;;;5.10;3.72;;;;;;;;;;5093856;28;20031;-33
2024/01/05 11:26:03;;;;;;;4.55;3.60;;;;;;;;;;5092433;28;20020;-32
2024/01/05 11:28:33;;;;;;;4.25;3.60;;;;;;;;;;5093798;28;20367;-33
2024/01/05 11:30:58;;;;;;;6.55;4.03;;;;;;;;;;5095547;28;20359;-32
2024/01/05 11:33:42;;;;;;;6.22;4.50;;;;;;;;;;5095577;28;20023;-33
2024/01/05 11:36:08;;;;;;;8.73;5.28;;;;;;;;;;5094130;28;20439;-32
2024/01/05 11:38:33;;;;;;;11.60;4.97;;;;;;;;;;5094580;28;20066;-32
2024/01/05 11:40:59;;;;;;;6.70;4.32;;;;;;;;;;5094777;28;20617;-32
2024/01/05 11:43:30;;;;;;;8.25;4.60;;;;;;;;;;5095848;28;20058;-33
2024/01/05 11:45:55;;;;;;;5.68;4.00;;;;;;;;;;5095489;28;20032;-33
2024/01/05 11:48:33;;;;;;;5.30;4.00;;;;;;;;;;5095317;28;20012;-32
2024/01/05 11:50:59;;;;;;;4.80;3.45;;;;;;;;;;5095281;28;20026;-33
2024/01/05 11:53:24;;;;;;;4.65;3.60;;;;;;;;;;5095805;28;20011;-32
2024/01/05 11:55:50;;;;;;;4.43;3.25;;;;;;;;;;5093643;28;20012;-33
2024/01/05 11:58:37;;;;;;;6.53;3.83;;;;;;;;;;5094642;28;20031;-33
2024/01/05 12:01:03;;;;;;;4.70;3.50;;;;;;;;;;5094659;28;20027;-33
2024/01/05 12:03:28;;;;;;;5.78;3.35;;;;;;;;;;5094957;28;20399;-32
2024/01/05 12:05:54;;;;;;;3.60;2.78;;;;;;;;;;5094157;28;20061;-33
2024/01/05 12:08:21;;;;;;;4.40;3.30;;;;;;;;;;5076844;28;20111;-33
2024/01/05 12:10:51;;;;;;;3.60;2.75;;;;;;;;;;5095403;28;20099;-33
2024/01/05 12:13:20;;;;;;;3.95;3.15;;;;;;;;;;5095034;28;20017;-34
2024/01/05 12:15:51;;;;;;;4.28;3.15;;;;;;;;;;5094942;28;20012;-38
2024/01/05 12:18:18;;;;;;;3.75;3.03;;;;;;;;;;5076806;28;20459;-33
2024/01/05 12:20:43;;;;;;;5.38;3.50;;;;;;;;;;5094267;28;20328;-33
2024/01/05 12:23:08;;;;;;;4.43;3.00;;;;;;;;;;5076339;28;20364;-34
2024/01/05 12:25:35;;;;;;;3.85;3.10;;;;;;;;;;5076644;28;20020;-34
2024/01/05 12:28:01;;;;;;;3.60;3.10;;;;;;;;;;5094641;28;20019;-34
2024/01/05 12:30:26;;;;;;;4.55;3.20;;;;;;;;;;5076561;28;20377;-34
2024/01/05 12:32:52;;;;;;;4.07;3.50;;;;;;;;;;5076457;28;20065;-34
2024/01/05 12:35:17;;;;;;;4.20;3.20;;;;;;;;;;5094895;28;20462;-34
2024/01/05 12:37:49;;;;;;;3.97;3.28;;;;;;;;;;5094062;28;20030;-34
2024/01/05 12:40:14;;;;;;;4.47;3.15;;;;;;;;;;5094478;28;20027;-33
2024/01/05 12:42:39;;;;;;;3.90;3.30;;;;;;;;;;5094656;28;20485;-34
2024/01/05 12:45:05;;;;;;;4.22;3.20;;;;;;;;;;5094284;28;20357;-33
2024/01/05 12:47:31;;;;;;;6.28;3.42;;;;;;;;;;5094121;28;20043;-33
2024/01/05 12:49:56;;;;;;;4.05;3.25;;;;;;;;;;5094578;28;20012;-33
2024/01/05 12:52:32;;;;;;;4.23;3.60;;;;;;;;;;5094207;28;20016;-33
2024/01/05 12:54:57;;;;;;;4.95;3.78;;;;;;;;;;5094294;28;20262;-32
2024/01/05 12:57:22;;;;;;;4.90;3.77;;;;;;;;;;5093671;28;20116;-33
2024/01/05 12:59:47;;;;;;;4.80;4.00;;;;;;;;;;5093453;28;20258;-34
2024/01/05 13:02:13;;;;;;;5.05;4.00;;;;;;;;;;5075274;28;20649;-33
2024/01/05 13:04:39;;;;;;;4.75;4.03;;;;;;;;;;5093955;28;20012;-33
2024/01/05 13:07:04;;;;;;;4.68;3.70;;;;;;;;;;5094246;28;20058;-33
2024/01/05 13:09:32;;;;;;;6.80;4.50;;;;;;;;;;5075682;28;20016;-32
2024/01/05 13:11:58;;;;;;;7.85;3.90;;;;;;;;;;5093707;28;20459;-32
2024/01/05 13:14:23;;;;;;;6.70;4.10;;;;;;;;;;5094338;28;20016;-33
2024/01/05 13:16:51;;;;;;;5.18;3.80;;;;;;;;;;5094025;28;20265;-33
2024/01/05 13:19:17;;;;;;;4.90;3.70;;;;;;;;;;5093409;28;20073;-33
2024/01/05 13:21:42;;;;;;;5.65;3.58;;;;;;;;;;5092527;28;20390;-32
2024/01/05 13:24:07;;;;;;;6.25;3.88;;;;;;;;;;5093621;28;20016;-33
2024/01/05 13:26:33;;;;;;;7.60;3.88;;;;;;;;;;5094073;28;20027;-33
2024/01/05 13:28:58;;;;;;;7.10;4.22;;;;;;;;;;5093686;28;20546;-33
2024/01/05 13:31:23;;;;;;;4.20;3.80;;;;;;;;;;5094195;28;20087;-33
2024/01/05 13:33:48;;;;;;;5.20;4.07;;;;;;;;;;5093825;28;20261;-33
2024/01/05 13:36:14;;;;;;;6.47;4.47;;;;;;;;;;5075664;28;20281;-33
2024/01/05 13:38:40;;;;;;;5.72;4.22;;;;;;;;;;5093491;28;20437;-33
2024/01/05 13:41:06;;;;;;;6.10;4.65;;;;;;;;;;5075448;28;20020;-33
2024/01/05 13:43:31;;;;;;;5.70;3.88;;;;;;;;;;5093577;28;20103;-32
2024/01/05 13:45:58;;;;;;;6.23;3.80;;;;;;;;;;5093524;28;20023;-33
2024/01/05 13:48:24;;;;;;;5.93;4.30;;;;;;;;;;5093652;28;20796;-33
2024/01/05 13:50:49;;;;;;;5.70;4.25;;;;;;;;;;5078373;28;20058;-33
2024/01/05 13:53:14;;;;;;;5.93;4.10;;;;;;;;;;5097949;28;20031;-33
2024/01/05 13:55:40;;;;;;;6.43;4.50;;;;;;;;;;5079405;28;20016;-33
2024/01/05 13:58:06;;;;;;;7.15;4.32;;;;;;;;;;5097551;28;20024;-33
2024/01/05 14:00:31;;;;;;;8.05;5.18;;;;;;;;;;5097712;28;20024;-33
2024/01/05 14:02:56;;;;;;;5.35;4.18;;;;;;;;;;5097259;28;20055;-33
2024/01/05 14:05:21;;;;;;;4.93;4.07;;;;;;;;;;5097372;28;20023;-33
2024/01/05 14:07:46;;;;;;;8.10;4.75;;;;;;;;;;5097546;28;20274;-33
2024/01/05 14:10:19;;;;;;;5.68;4.75;;;;;;;;;;5096906;28;20031;-32
2024/01/05 14:12:44;;;;;;;5.57;4.75;;;;;;;;;;5078301;28;20467;-33
2024/01/05 14:15:09;;;;;;;6.57;5.03;;;;;;;;;;5096854;28;20141;-33
2024/01/05 14:17:37;;;;;;;6.63;4.75;;;;;;;;;;5095117;28;20274;-33
2024/01/05 14:20:03;;;;;;;6.70;5.07;;;;;;;;;;5076611;28;20024;-32
2024/01/05 14:22:29;;;;;;;7.43;5.13;;;;;;;;;;5076658;28;20024;-32
2024/01/05 14:24:54;;;;;;;6.53;4.77;;;;;;;;;;5095046;28;20096;-33
2024/01/05 14:27:19;;;;;;;6.05;4.57;;;;;;;;;;5094859;28;20261;-33
2024/01/05 14:29:45;;;;;;;6.50;5.05;;;;;;;;;;5094900;28;20016;-33